sensor_id;sensor_type;location;lat;lon;timestamp;temperature;humidity
18888;DHT22;9576;47.792;9.628;2023-03-29T00:00:58;6.50;99.90
18888;DHT22;9576;47.792;9.628;2023-03-29T00:04:02;6.60;99.90
18888;DHT22;9576;47.792;9.628;2023-03-29T00:07:04;6.60;99.90
18888;DHT22;9576;47.792;9.628;2023-03-29T00:10:08;6.50;99.90
18888;DHT22;9576;47.792;9.628;2023-03-29T00:13:11;6.40;99.90
18888;DHT22;9576;47.792;9.628;2023-03-29T00:16:13;6.30;99.90
18888;DHT22;9576;47.792;9.628;2023-03-29T00:19:16;6.30;99.90
18888;DHT22;9576;47.792;9.628;2023-03-29T00:22:18;6.30;99.90
18888;DHT22;9576;47.792;9.628;2023-03-29T00:25:20;6.40;99.90
18888;DHT22;9576;47.792;9.628;2023-03-29T00:28:23;6.40;99.90
18888;DHT22;9576;47.792;9.628;2023-03-29T00:31:25;6.40;99.90
18888;DHT22;9576;47.792;9.628;2023-03-29T00:34:28;6.50;99.90
18888;DHT22;9576;47.792;9.628;2023-03-29T00:37:31;6.50;99.90
18888;DHT22;9576;47.792;9.628;2023-03-29T00:40:34;6.50;99.90
18888;DHT22;9576;47.792;9.628;2023-03-29T00:43:55;6.50;99.90
18888;DHT22;9576;47.792;9.628;2023-03-29T00:46:57;6.60;99.90
18888;DHT22;9576;47.792;9.628;2023-03-29T00:50:04;6.50;99.90
18888;DHT22;9576;47.792;9.628;2023-03-29T00:53:09;6.60;99.90
18888;DHT22;9576;47.792;9.628;2023-03-29T00:56:18;6.40;99.90
18888;DHT22;9576;47.792;9.628;2023-03-29T00:59:24;6.30;99.90
18888;DHT22;9576;47.792;9.628;2023-03-29T01:02:29;6.20;99.90
18888;DHT22;9576;47.792;9.628;2023-03-29T01:05:37;6.30;99.90
18888;DHT22;9576;47.792;9.628;2023-03-29T01:08:43;6.30;99.90
18888;DHT22;9576;47.792;9.628;2023-03-29T01:11:50;6.30;99.90
18888;DHT22;9576;47.792;9.628;2023-03-29T01:14:55;6.30;99.90
18888;DHT22;9576;47.792;9.628;2023-03-29T01:17:58;6.40;99.90
18888;DHT22;9576;47.792;9.628;2023-03-29T01:21:13;6.40;99.90
18888;DHT22;9576;47.792;9.628;2023-03-29T01:24:28;6.50;99.90
18888;DHT22;9576;47.792;9.628;2023-03-29T01:27:49;6.50;99.90
18888;DHT22;9576;47.792;9.628;2023-03-29T01:30:56;6.50;99.90
18888;DHT22;9576;47.792;9.628;2023-03-29T01:34:01;6.60;99.90
18888;DHT22;9576;47.792;9.628;2023-03-29T01:37:09;6.60;99.90
18888;DHT22;9576;47.792;9.628;2023-03-29T01:40:13;6.60;99.90
18888;DHT22;9576;47.792;9.628;2023-03-29T01:43:22;6.70;99.90
18888;DHT22;9576;47.792;9.628;2023-03-29T01:46:29;6.70;99.90
18888;DHT22;9576;47.792;9.628;2023-03-29T01:49:37;6.80;99.90
18888;DHT22;9576;47.792;9.628;2023-03-29T01:52:46;6.70;99.90
18888;DHT22;9576;47.792;9.628;2023-03-29T01:55:52;6.60;99.90
18888;DHT22;9576;47.792;9.628;2023-03-29T01:58:59;6.50;99.90
18888;DHT22;9576;47.792;9.628;2023-03-29T02:02:04;6.40;99.90
18888;DHT22;9576;47.792;9.628;2023-03-29T02:05:11;6.40;99.90
18888;DHT22;9576;47.792;9.628;2023-03-29T02:08:15;6.40;99.90
18888;DHT22;9576;47.792;9.628;2023-03-29T02:11:19;6.60;99.90
18888;DHT22;9576;47.792;9.628;2023-03-29T02:14:24;6.70;99.90
18888;DHT22;9576;47.792;9.628;2023-03-29T02:17:26;6.90;99.90
18888;DHT22;9576;47.792;9.628;2023-03-29T02:20:30;6.80;99.90
18888;DHT22;9576;47.792;9.628;2023-03-29T02:23:34;6.80;99.90
18888;DHT22;9576;47.792;9.628;2023-03-29T02:26:38;6.80;99.90
18888;DHT22;9576;47.792;9.628;2023-03-29T02:29:41;6.80;99.90
18888;DHT22;9576;47.792;9.628;2023-03-29T02:32:48;6.90;99.90
18888;DHT22;9576;47.792;9.628;2023-03-29T02:35:56;6.90;99.90
18888;DHT22;9576;47.792;9.628;2023-03-29T02:39:00;7.00;99.90
18888;DHT22;9576;47.792;9.628;2023-03-29T02:42:05;7.10;99.90
18888;DHT22;9576;47.792;9.628;2023-03-29T02:45:10;7.00;99.90
18888;DHT22;9576;47.792;9.628;2023-03-29T02:48:16;7.00;99.90
18888;DHT22;9576;47.792;9.628;2023-03-29T02:51:20;7.00;99.90
18888;DHT22;9576;47.792;9.628;2023-03-29T02:54:24;7.10;99.90
18888;DHT22;9576;47.792;9.628;2023-03-29T02:57:29;7.10;99.90
18888;DHT22;9576;47.792;9.628;2023-03-29T03:00:34;7.20;99.90
18888;DHT22;9576;47.792;9.628;2023-03-29T03:03:36;7.10;99.90
18888;DHT22;9576;47.792;9.628;2023-03-29T03:06:39;7.10;99.90
18888;DHT22;9576;47.792;9.628;2023-03-29T03:09:41;7.10;99.90
18888;DHT22;9576;47.792;9.628;2023-03-29T03:12:43;7.10;99.90
18888;DHT22;9576;47.792;9.628;2023-03-29T03:15:46;7.20;99.90
18888;DHT22;9576;47.792;9.628;2023-03-29T03:18:48;7.10;99.90
18888;DHT22;9576;47.792;9.628;2023-03-29T03:21:51;7.00;99.90
18888;DHT22;9576;47.792;9.628;2023-03-29T03:24:52;6.90;99.90
18888;DHT22;9576;47.792;9.628;2023-03-29T03:27:55;6.90;99.90
18888;DHT22;9576;47.792;9.628;2023-03-29T03:30:58;6.80;99.90
18888;DHT22;9576;47.792;9.628;2023-03-29T03:34:00;6.80;99.90
18888;DHT22;9576;47.792;9.628;2023-03-29T03:37:02;6.80;99.90
18888;DHT22;9576;47.792;9.628;2023-03-29T03:40:05;6.70;99.90
18888;DHT22;9576;47.792;9.628;2023-03-29T03:43:11;6.70;99.90
18888;DHT22;9576;47.792;9.628;2023-03-29T03:46:14;6.60;99.90
18888;DHT22;9576;47.792;9.628;2023-03-29T03:49:16;6.50;99.90
18888;DHT22;9576;47.792;9.628;2023-03-29T03:52:18;6.50;99.90
18888;DHT22;9576;47.792;9.628;2023-03-29T03:55:20;6.50;99.90
18888;DHT22;9576;47.792;9.628;2023-03-29T03:58:23;6.50;99.90
18888;DHT22;9576;47.792;9.628;2023-03-29T04:01:26;6.50;99.90
18888;DHT22;9576;47.792;9.628;2023-03-29T04:04:28;6.50;99.90
18888;DHT22;9576;47.792;9.628;2023-03-29T04:07:30;6.40;99.90
18888;DHT22;9576;47.792;9.628;2023-03-29T04:10:34;6.50;99.90
18888;DHT22;9576;47.792;9.628;2023-03-29T04:13:36;6.50;99.90
18888;DHT22;9576;47.792;9.628;2023-03-29T04:16:39;6.50;99.90
18888;DHT22;9576;47.792;9.628;2023-03-29T04:19:41;6.50;99.90
18888;DHT22;9576;47.792;9.628;2023-03-29T04:22:43;6.50;99.90
18888;DHT22;9576;47.792;9.628;2023-03-29T04:25:45;6.50;99.90
18888;DHT22;9576;47.792;9.628;2023-03-29T04:28:47;6.60;99.90
18888;DHT22;9576;47.792;9.628;2023-03-29T04:31:50;6.50;99.90
18888;DHT22;9576;47.792;9.628;2023-03-29T04:34:52;6.50;99.90
18888;DHT22;9576;47.792;9.628;2023-03-29T04:37:54;6.50;99.90
18888;DHT22;9576;47.792;9.628;2023-03-29T04:40:56;6.40;99.90
18888;DHT22;9576;47.792;9.628;2023-03-29T04:44:01;6.50;99.90
18888;DHT22;9576;47.792;9.628;2023-03-29T04:47:04;6.50;99.90
18888;DHT22;9576;47.792;9.628;2023-03-29T04:50:07;6.50;99.90
18888;DHT22;9576;47.792;9.628;2023-03-29T04:53:09;6.50;99.90
18888;DHT22;9576;47.792;9.628;2023-03-29T04:56:11;6.50;99.90
18888;DHT22;9576;47.792;9.628;2023-03-29T04:59:13;6.50;99.90
18888;DHT22;9576;47.792;9.628;2023-03-29T05:02:16;6.50;99.90
18888;DHT22;9576;47.792;9.628;2023-03-29T05:05:18;6.50;99.90
18888;DHT22;9576;47.792;9.628;2023-03-29T05:08:20;6.60;99.90
18888;DHT22;9576;47.792;9.628;2023-03-29T05:11:22;6.60;99.90
18888;DHT22;9576;47.792;9.628;2023-03-29T05:14:26;6.70;99.90
18888;DHT22;9576;47.792;9.628;2023-03-29T05:17:29;6.70;99.90
18888;DHT22;9576;47.792;9.628;2023-03-29T05:20:31;6.40;99.90
18888;DHT22;9576;47.792;9.628;2023-03-29T05:23:33;6.40;99.90
18888;DHT22;9576;47.792;9.628;2023-03-29T05:26:35;6.30;99.90
18888;DHT22;9576;47.792;9.628;2023-03-29T05:29:38;6.20;99.90
18888;DHT22;9576;47.792;9.628;2023-03-29T05:32:41;6.30;99.90
18888;DHT22;9576;47.792;9.628;2023-03-29T05:35:43;6.20;99.90
18888;DHT22;9576;47.792;9.628;2023-03-29T05:38:45;6.10;99.90
18888;DHT22;9576;47.792;9.628;2023-03-29T05:41:47;6.20;99.90
18888;DHT22;9576;47.792;9.628;2023-03-29T05:44:49;6.20;99.90
18888;DHT22;9576;47.792;9.628;2023-03-29T05:47:52;6.10;99.90
18888;DHT22;9576;47.792;9.628;2023-03-29T05:50:55;6.10;99.90
18888;DHT22;9576;47.792;9.628;2023-03-29T05:53:57;6.10;99.90
18888;DHT22;9576;47.792;9.628;2023-03-29T05:56:59;6.10;99.90
18888;DHT22;9576;47.792;9.628;2023-03-29T06:00:01;6.10;99.90
18888;DHT22;9576;47.792;9.628;2023-03-29T06:03:18;6.10;99.90
18888;DHT22;9576;47.792;9.628;2023-03-29T06:06:24;6.10;99.90
18888;DHT22;9576;47.792;9.628;2023-03-29T06:09:26;6.10;99.90
18888;DHT22;9576;47.792;9.628;2023-03-29T06:12:28;6.10;99.90
18888;DHT22;9576;47.792;9.628;2023-03-29T06:15:31;6.00;99.90
18888;DHT22;9576;47.792;9.628;2023-03-29T06:18:36;6.10;99.90
18888;DHT22;9576;47.792;9.628;2023-03-29T06:21:39;6.10;99.90
18888;DHT22;9576;47.792;9.628;2023-03-29T06:24:41;6.30;99.90
18888;DHT22;9576;47.792;9.628;2023-03-29T06:27:43;6.30;99.90
18888;DHT22;9576;47.792;9.628;2023-03-29T06:30:47;6.40;99.90
18888;DHT22;9576;47.792;9.628;2023-03-29T06:33:50;6.50;99.90
18888;DHT22;9576;47.792;9.628;2023-03-29T06:36:52;6.60;99.90
18888;DHT22;9576;47.792;9.628;2023-03-29T06:39:54;6.70;99.90
18888;DHT22;9576;47.792;9.628;2023-03-29T06:42:56;6.80;99.90
18888;DHT22;9576;47.792;9.628;2023-03-29T06:45:59;6.90;99.90
18888;DHT22;9576;47.792;9.628;2023-03-29T06:49:02;7.00;99.90
18888;DHT22;9576;47.792;9.628;2023-03-29T06:52:04;7.10;99.90
18888;DHT22;9576;47.792;9.628;2023-03-29T06:55:07;7.10;99.90
18888;DHT22;9576;47.792;9.628;2023-03-29T06:58:11;7.20;99.90
18888;DHT22;9576;47.792;9.628;2023-03-29T07:01:13;7.20;99.90
18888;DHT22;9576;47.792;9.628;2023-03-29T07:04:16;7.20;99.90
18888;DHT22;9576;47.792;9.628;2023-03-29T07:07:18;7.10;99.90
18888;DHT22;9576;47.792;9.628;2023-03-29T07:10:23;7.10;99.90
18888;DHT22;9576;47.792;9.628;2023-03-29T07:13:27;7.10;99.90
18888;DHT22;9576;47.792;9.628;2023-03-29T07:16:30;7.20;99.90
18888;DHT22;9576;47.792;9.628;2023-03-29T07:19:33;7.30;99.90
18888;DHT22;9576;47.792;9.628;2023-03-29T07:22:35;7.40;99.90
18888;DHT22;9576;47.792;9.628;2023-03-29T07:25:37;7.40;99.90
18888;DHT22;9576;47.792;9.628;2023-03-29T07:28:39;7.50;99.90
18888;DHT22;9576;47.792;9.628;2023-03-29T07:31:41;7.50;99.90
18888;DHT22;9576;47.792;9.628;2023-03-29T07:34:47;7.60;99.90
18888;DHT22;9576;47.792;9.628;2023-03-29T07:37:48;7.60;99.90
18888;DHT22;9576;47.792;9.628;2023-03-29T07:40:50;7.60;99.90
18888;DHT22;9576;47.792;9.628;2023-03-29T07:43:53;7.70;99.90
18888;DHT22;9576;47.792;9.628;2023-03-29T07:46:56;7.70;99.90
18888;DHT22;9576;47.792;9.628;2023-03-29T07:50:00;7.90;99.90
18888;DHT22;9576;47.792;9.628;2023-03-29T07:53:03;8.10;99.90
18888;DHT22;9576;47.792;9.628;2023-03-29T07:56:06;8.20;99.90
18888;DHT22;9576;47.792;9.628;2023-03-29T07:59:09;8.50;99.90
18888;DHT22;9576;47.792;9.628;2023-03-29T08:02:11;8.90;99.90
18888;DHT22;9576;47.792;9.628;2023-03-29T08:05:15;9.00;99.90
18888;DHT22;9576;47.792;9.628;2023-03-29T08:08:17;9.10;99.90
18888;DHT22;9576;47.792;9.628;2023-03-29T08:11:19;9.20;99.90
18888;DHT22;9576;47.792;9.628;2023-03-29T08:14:21;9.20;99.90
18888;DHT22;9576;47.792;9.628;2023-03-29T08:17:23;9.20;99.90
18888;DHT22;9576;47.792;9.628;2023-03-29T08:20:26;9.20;99.90
18888;DHT22;9576;47.792;9.628;2023-03-29T08:23:28;9.20;99.90
18888;DHT22;9576;47.792;9.628;2023-03-29T08:26:30;9.20;99.90
18888;DHT22;9576;47.792;9.628;2023-03-29T08:29:32;9.40;99.90
18888;DHT22;9576;47.792;9.628;2023-03-29T08:32:34;9.40;99.90
18888;DHT22;9576;47.792;9.628;2023-03-29T08:35:38;9.30;99.90
18888;DHT22;9576;47.792;9.628;2023-03-29T08:38:40;9.50;99.90
18888;DHT22;9576;47.792;9.628;2023-03-29T08:41:51;9.60;99.90
18888;DHT22;9576;47.792;9.628;2023-03-29T08:45:03;9.60;99.90
18888;DHT22;9576;47.792;9.628;2023-03-29T08:48:14;9.70;99.90
18888;DHT22;9576;47.792;9.628;2023-03-29T08:51:23;9.80;99.90
18888;DHT22;9576;47.792;9.628;2023-03-29T08:54:28;9.80;99.90
18888;DHT22;9576;47.792;9.628;2023-03-29T08:57:36;9.90;99.90
18888;DHT22;9576;47.792;9.628;2023-03-29T09:00:44;10.00;99.90
18888;DHT22;9576;47.792;9.628;2023-03-29T09:03:49;10.00;99.90
18888;DHT22;9576;47.792;9.628;2023-03-29T09:06:55;10.20;99.90
18888;DHT22;9576;47.792;9.628;2023-03-29T09:09:57;10.20;99.90
18888;DHT22;9576;47.792;9.628;2023-03-29T09:13:09;10.20;99.90
18888;DHT22;9576;47.792;9.628;2023-03-29T09:16:19;10.20;99.90
18888;DHT22;9576;47.792;9.628;2023-03-29T09:19:29;10.20;99.90
18888;DHT22;9576;47.792;9.628;2023-03-29T09:22:39;10.20;99.90
18888;DHT22;9576;47.792;9.628;2023-03-29T09:25:49;10.20;99.90
18888;DHT22;9576;47.792;9.628;2023-03-29T09:29:02;10.30;99.90
18888;DHT22;9576;47.792;9.628;2023-03-29T09:32:17;10.50;99.90
18888;DHT22;9576;47.792;9.628;2023-03-29T09:35:26;10.70;99.90
18888;DHT22;9576;47.792;9.628;2023-03-29T09:38:30;10.80;99.90
18888;DHT22;9576;47.792;9.628;2023-03-29T09:41:39;10.90;99.90
18888;DHT22;9576;47.792;9.628;2023-03-29T09:44:45;11.10;99.90
18888;DHT22;9576;47.792;9.628;2023-03-29T09:47:51;11.00;99.90
18888;DHT22;9576;47.792;9.628;2023-03-29T09:50:54;11.10;99.90
18888;DHT22;9576;47.792;9.628;2023-03-29T09:53:58;11.30;99.90
18888;DHT22;9576;47.792;9.628;2023-03-29T09:57:00;11.30;99.90
18888;DHT22;9576;47.792;9.628;2023-03-29T10:00:03;11.30;99.90
18888;DHT22;9576;47.792;9.628;2023-03-29T10:03:06;11.30;99.90
18888;DHT22;9576;47.792;9.628;2023-03-29T10:06:09;11.40;99.90
18888;DHT22;9576;47.792;9.628;2023-03-29T10:09:18;11.40;99.90
18888;DHT22;9576;47.792;9.628;2023-03-29T10:12:20;11.40;99.90
18888;DHT22;9576;47.792;9.628;2023-03-29T10:15:22;11.40;99.90
18888;DHT22;9576;47.792;9.628;2023-03-29T10:18:24;11.50;99.90
18888;DHT22;9576;47.792;9.628;2023-03-29T10:21:28;11.70;99.90
18888;DHT22;9576;47.792;9.628;2023-03-29T10:24:31;11.80;99.90
18888;DHT22;9576;47.792;9.628;2023-03-29T10:27:34;11.90;99.90
18888;DHT22;9576;47.792;9.628;2023-03-29T10:30:38;12.00;99.90
18888;DHT22;9576;47.792;9.628;2023-03-29T10:33:40;12.00;99.90
18888;DHT22;9576;47.792;9.628;2023-03-29T10:36:45;12.10;99.90
18888;DHT22;9576;47.792;9.628;2023-03-29T10:39:54;12.20;99.90
18888;DHT22;9576;47.792;9.628;2023-03-29T10:43:00;12.20;99.90
18888;DHT22;9576;47.792;9.628;2023-03-29T10:46:16;12.20;99.90
18888;DHT22;9576;47.792;9.628;2023-03-29T10:49:21;12.20;99.90
18888;DHT22;9576;47.792;9.628;2023-03-29T10:52:25;12.20;99.90
18888;DHT22;9576;47.792;9.628;2023-03-29T10:55:33;12.20;99.90
18888;DHT22;9576;47.792;9.628;2023-03-29T10:58:41;12.20;99.90
18888;DHT22;9576;47.792;9.628;2023-03-29T11:02:01;12.30;99.90
18888;DHT22;9576;47.792;9.628;2023-03-29T11:05:14;12.30;99.90
18888;DHT22;9576;47.792;9.628;2023-03-29T11:08:31;12.40;99.90
18888;DHT22;9576;47.792;9.628;2023-03-29T11:11:58;12.50;99.90
18888;DHT22;9576;47.792;9.628;2023-03-29T11:15:13;12.50;99.90
18888;DHT22;9576;47.792;9.628;2023-03-29T11:18:45;12.60;99.90
18888;DHT22;9576;47.792;9.628;2023-03-29T11:21:54;12.60;99.90
18888;DHT22;9576;47.792;9.628;2023-03-29T11:25:22;12.60;99.90
18888;DHT22;9576;47.792;9.628;2023-03-29T11:28:28;12.50;99.90
18888;DHT22;9576;47.792;9.628;2023-03-29T11:31:33;12.40;99.90
18888;DHT22;9576;47.792;9.628;2023-03-29T11:34:50;12.50;99.90
18888;DHT22;9576;47.792;9.628;2023-03-29T11:37:59;12.40;99.90
18888;DHT22;9576;47.792;9.628;2023-03-29T11:41:10;12.50;99.90
18888;DHT22;9576;47.792;9.628;2023-03-29T11:44:18;12.50;99.90
18888;DHT22;9576;47.792;9.628;2023-03-29T11:47:23;12.50;99.90
18888;DHT22;9576;47.792;9.628;2023-03-29T11:50:29;12.70;99.90
18888;DHT22;9576;47.792;9.628;2023-03-29T11:53:38;12.80;99.90
18888;DHT22;9576;47.792;9.628;2023-03-29T11:56:45;12.80;99.90
18888;DHT22;9576;47.792;9.628;2023-03-29T11:59:53;12.90;99.90
18888;DHT22;9576;47.792;9.628;2023-03-29T12:02:59;13.00;99.90
18888;DHT22;9576;47.792;9.628;2023-03-29T12:06:06;13.20;99.90
18888;DHT22;9576;47.792;9.628;2023-03-29T12:09:21;13.40;99.90
18888;DHT22;9576;47.792;9.628;2023-03-29T12:12:28;13.70;99.90
18888;DHT22;9576;47.792;9.628;2023-03-29T12:15:37;13.90;99.90
18888;DHT22;9576;47.792;9.628;2023-03-29T12:18:44;13.80;99.90
18888;DHT22;9576;47.792;9.628;2023-03-29T12:21:47;13.80;99.90
18888;DHT22;9576;47.792;9.628;2023-03-29T12:24:52;13.60;99.90
18888;DHT22;9576;47.792;9.628;2023-03-29T12:28:17;13.50;99.90
18888;DHT22;9576;47.792;9.628;2023-03-29T12:31:28;13.60;99.90
18888;DHT22;9576;47.792;9.628;2023-03-29T12:34:48;13.60;99.90
18888;DHT22;9576;47.792;9.628;2023-03-29T12:38:04;13.70;99.90
18888;DHT22;9576;47.792;9.628;2023-03-29T12:41:13;13.70;99.90
18888;DHT22;9576;47.792;9.628;2023-03-29T12:44:20;13.80;99.90
18888;DHT22;9576;47.792;9.628;2023-03-29T12:47:25;14.00;99.90
18888;DHT22;9576;47.792;9.628;2023-03-29T12:50:32;14.00;99.90
18888;DHT22;9576;47.792;9.628;2023-03-29T12:53:37;14.00;99.90
18888;DHT22;9576;47.792;9.628;2023-03-29T12:56:53;14.00;99.90
18888;DHT22;9576;47.792;9.628;2023-03-29T12:59:55;14.00;99.90
18888;DHT22;9576;47.792;9.628;2023-03-29T13:03:27;14.00;99.90
18888;DHT22;9576;47.792;9.628;2023-03-29T13:06:31;13.90;99.90
18888;DHT22;9576;47.792;9.628;2023-03-29T13:09:47;14.00;99.90
18888;DHT22;9576;47.792;9.628;2023-03-29T13:12:49;14.00;99.90
18888;DHT22;9576;47.792;9.628;2023-03-29T13:15:54;14.10;99.90
18888;DHT22;9576;47.792;9.628;2023-03-29T13:19:06;14.30;99.90
18888;DHT22;9576;47.792;9.628;2023-03-29T13:22:14;14.30;99.90
18888;DHT22;9576;47.792;9.628;2023-03-29T13:25:29;14.30;99.90
18888;DHT22;9576;47.792;9.628;2023-03-29T13:28:40;14.70;99.90
18888;DHT22;9576;47.792;9.628;2023-03-29T13:31:51;15.30;99.90
18888;DHT22;9576;47.792;9.628;2023-03-29T13:35:02;15.60;99.90
18888;DHT22;9576;47.792;9.628;2023-03-29T13:38:14;15.50;99.90
18888;DHT22;9576;47.792;9.628;2023-03-29T13:41:31;15.40;99.90
18888;DHT22;9576;47.792;9.628;2023-03-29T13:44:44;15.40;99.90
18888;DHT22;9576;47.792;9.628;2023-03-29T13:47:48;15.50;99.90
18888;DHT22;9576;47.792;9.628;2023-03-29T13:50:54;15.50;99.90
18888;DHT22;9576;47.792;9.628;2023-03-29T13:54:00;15.80;99.90
18888;DHT22;9576;47.792;9.628;2023-03-29T13:57:09;16.00;99.90
18888;DHT22;9576;47.792;9.628;2023-03-29T14:00:16;16.20;99.90
18888;DHT22;9576;47.792;9.628;2023-03-29T14:03:20;16.40;99.90
18888;DHT22;9576;47.792;9.628;2023-03-29T14:06:30;16.50;99.90
18888;DHT22;9576;47.792;9.628;2023-03-29T14:09:37;16.60;99.90
18888;DHT22;9576;47.792;9.628;2023-03-29T14:12:42;16.50;99.90
18888;DHT22;9576;47.792;9.628;2023-03-29T14:15:46;16.50;99.90
18888;DHT22;9576;47.792;9.628;2023-03-29T14:18:50;16.60;99.90
18888;DHT22;9576;47.792;9.628;2023-03-29T14:21:53;17.40;99.90
18888;DHT22;9576;47.792;9.628;2023-03-29T14:24:55;18.80;99.90
18888;DHT22;9576;47.792;9.628;2023-03-29T14:28:10;20.00;99.90
18888;DHT22;9576;47.792;9.628;2023-03-29T14:31:19;20.50;99.90
18888;DHT22;9576;47.792;9.628;2023-03-29T14:34:22;19.70;99.90
18888;DHT22;9576;47.792;9.628;2023-03-29T14:37:27;18.80;99.90
18888;DHT22;9576;47.792;9.628;2023-03-29T14:40:29;18.10;99.90
18888;DHT22;9576;47.792;9.628;2023-03-29T14:43:32;17.50;99.90
18888;DHT22;9576;47.792;9.628;2023-03-29T14:46:34;17.10;99.90
18888;DHT22;9576;47.792;9.628;2023-03-29T14:49:36;16.80;99.90
18888;DHT22;9576;47.792;9.628;2023-03-29T14:52:39;16.60;99.90
18888;DHT22;9576;47.792;9.628;2023-03-29T14:55:43;16.70;99.90
18888;DHT22;9576;47.792;9.628;2023-03-29T14:58:46;17.20;99.90
18888;DHT22;9576;47.792;9.628;2023-03-29T15:01:49;17.40;99.90
18888;DHT22;9576;47.792;9.628;2023-03-29T15:04:55;17.10;99.90
18888;DHT22;9576;47.792;9.628;2023-03-29T15:07:59;17.00;99.90
18888;DHT22;9576;47.792;9.628;2023-03-29T15:11:02;16.90;99.90
18888;DHT22;9576;47.792;9.628;2023-03-29T15:14:06;17.10;99.90
18888;DHT22;9576;47.792;9.628;2023-03-29T15:17:15;16.90;99.90
18888;DHT22;9576;47.792;9.628;2023-03-29T15:20:24;16.80;99.90
18888;DHT22;9576;47.792;9.628;2023-03-29T15:23:36;16.70;99.90
18888;DHT22;9576;47.792;9.628;2023-03-29T15:26:38;16.80;99.90
18888;DHT22;9576;47.792;9.628;2023-03-29T15:29:43;17.10;99.90
18888;DHT22;9576;47.792;9.628;2023-03-29T15:32:46;17.30;99.90
18888;DHT22;9576;47.792;9.628;2023-03-29T15:35:49;17.30;99.90
18888;DHT22;9576;47.792;9.628;2023-03-29T15:38:53;17.20;99.90
18888;DHT22;9576;47.792;9.628;2023-03-29T15:41:56;17.40;99.90
18888;DHT22;9576;47.792;9.628;2023-03-29T15:44:58;18.30;99.90
18888;DHT22;9576;47.792;9.628;2023-03-29T15:48:12;19.50;99.90
18888;DHT22;9576;47.792;9.628;2023-03-29T15:51:15;20.30;99.90
18888;DHT22;9576;47.792;9.628;2023-03-29T15:54:18;21.10;99.90
18888;DHT22;9576;47.792;9.628;2023-03-29T15:57:20;21.30;99.90
18888;DHT22;9576;47.792;9.628;2023-03-29T16:00:23;20.80;99.90
18888;DHT22;9576;47.792;9.628;2023-03-29T16:03:25;20.50;99.90
18888;DHT22;9576;47.792;9.628;2023-03-29T16:06:27;20.50;99.90
18888;DHT22;9576;47.792;9.628;2023-03-29T16:09:31;20.30;99.90
18888;DHT22;9576;47.792;9.628;2023-03-29T16:12:35;19.50;99.90
18888;DHT22;9576;47.792;9.628;2023-03-29T16:15:39;18.40;99.90
18888;DHT22;9576;47.792;9.628;2023-03-29T16:18:42;17.40;99.90
18888;DHT22;9576;47.792;9.628;2023-03-29T16:21:44;16.80;99.90
18888;DHT22;9576;47.792;9.628;2023-03-29T16:24:47;16.30;99.90
18888;DHT22;9576;47.792;9.628;2023-03-29T16:27:50;15.80;99.90
18888;DHT22;9576;47.792;9.628;2023-03-29T16:30:52;15.50;99.90
18888;DHT22;9576;47.792;9.628;2023-03-29T16:33:54;15.30;99.90
18888;DHT22;9576;47.792;9.628;2023-03-29T16:36:56;15.20;99.90
18888;DHT22;9576;47.792;9.628;2023-03-29T16:39:59;15.10;99.90
18888;DHT22;9576;47.792;9.628;2023-03-29T16:43:05;15.00;99.90
18888;DHT22;9576;47.792;9.628;2023-03-29T16:46:08;14.90;99.90
18888;DHT22;9576;47.792;9.628;2023-03-29T16:49:12;14.80;99.90
18888;DHT22;9576;47.792;9.628;2023-03-29T16:52:17;14.80;99.90
18888;DHT22;9576;47.792;9.628;2023-03-29T16:55:21;14.70;99.90
18888;DHT22;9576;47.792;9.628;2023-03-29T16:58:23;14.70;99.90
18888;DHT22;9576;47.792;9.628;2023-03-29T17:01:25;14.70;99.90
18888;DHT22;9576;47.792;9.628;2023-03-29T17:04:27;14.70;99.90
18888;DHT22;9576;47.792;9.628;2023-03-29T17:07:29;14.60;99.90
18888;DHT22;9576;47.792;9.628;2023-03-29T17:10:32;14.60;99.90
18888;DHT22;9576;47.792;9.628;2023-03-29T17:13:34;14.60;99.90
18888;DHT22;9576;47.792;9.628;2023-03-29T17:16:36;14.50;99.90
18888;DHT22;9576;47.792;9.628;2023-03-29T17:19:38;14.50;99.90
18888;DHT22;9576;47.792;9.628;2023-03-29T17:22:40;14.50;99.90
18888;DHT22;9576;47.792;9.628;2023-03-29T17:25:44;14.40;99.90
18888;DHT22;9576;47.792;9.628;2023-03-29T17:28:45;14.40;99.90
18888;DHT22;9576;47.792;9.628;2023-03-29T17:31:47;14.40;99.90
18888;DHT22;9576;47.792;9.628;2023-03-29T17:34:49;14.40;99.90
18888;DHT22;9576;47.792;9.628;2023-03-29T17:37:52;14.40;99.90
18888;DHT22;9576;47.792;9.628;2023-03-29T17:40:56;14.30;99.90
18888;DHT22;9576;47.792;9.628;2023-03-29T17:43:58;14.20;99.90
18888;DHT22;9576;47.792;9.628;2023-03-29T17:47:00;14.20;99.90
18888;DHT22;9576;47.792;9.628;2023-03-29T17:50:03;14.00;99.90
18888;DHT22;9576;47.792;9.628;2023-03-29T17:53:04;13.90;99.90
18888;DHT22;9576;47.792;9.628;2023-03-29T17:56:08;13.90;99.90
18888;DHT22;9576;47.792;9.628;2023-03-29T17:59:10;13.80;99.90
18888;DHT22;9576;47.792;9.628;2023-03-29T18:02:15;13.70;99.90
18888;DHT22;9576;47.792;9.628;2023-03-29T18:05:18;13.60;99.90
18888;DHT22;9576;47.792;9.628;2023-03-29T18:08:20;13.50;99.90
18888;DHT22;9576;47.792;9.628;2023-03-29T18:11:23;13.50;99.90
18888;DHT22;9576;47.792;9.628;2023-03-29T18:14:25;13.50;99.90
18888;DHT22;9576;47.792;9.628;2023-03-29T18:17:27;13.40;99.90
18888;DHT22;9576;47.792;9.628;2023-03-29T18:20:30;13.30;99.90
18888;DHT22;9576;47.792;9.628;2023-03-29T18:23:32;13.30;99.90
18888;DHT22;9576;47.792;9.628;2023-03-29T18:26:36;13.30;99.90
18888;DHT22;9576;47.792;9.628;2023-03-29T18:29:38;13.20;99.90
18888;DHT22;9576;47.792;9.628;2023-03-29T18:32:40;13.20;99.90
18888;DHT22;9576;47.792;9.628;2023-03-29T18:35:43;13.20;99.90
18888;DHT22;9576;47.792;9.628;2023-03-29T18:38:48;13.20;99.90
18888;DHT22;9576;47.792;9.628;2023-03-29T18:41:51;13.10;99.90
18888;DHT22;9576;47.792;9.628;2023-03-29T18:44:53;13.10;99.90
18888;DHT22;9576;47.792;9.628;2023-03-29T18:47:55;13.00;99.90
18888;DHT22;9576;47.792;9.628;2023-03-29T18:50:57;12.90;99.90
18888;DHT22;9576;47.792;9.628;2023-03-29T18:53:59;12.90;99.90
18888;DHT22;9576;47.792;9.628;2023-03-29T18:57:02;12.90;99.90
18888;DHT22;9576;47.792;9.628;2023-03-29T19:00:05;12.90;99.90
18888;DHT22;9576;47.792;9.628;2023-03-29T19:03:11;12.90;99.90
18888;DHT22;9576;47.792;9.628;2023-03-29T19:06:14;12.80;99.90
18888;DHT22;9576;47.792;9.628;2023-03-29T19:09:16;12.80;99.90
18888;DHT22;9576;47.792;9.628;2023-03-29T19:12:19;12.80;99.90
18888;DHT22;9576;47.792;9.628;2023-03-29T19:15:21;12.80;99.90
18888;DHT22;9576;47.792;9.628;2023-03-29T19:18:23;12.80;99.90
18888;DHT22;9576;47.792;9.628;2023-03-29T19:21:25;12.70;99.90
18888;DHT22;9576;47.792;9.628;2023-03-29T19:24:27;12.70;99.90
18888;DHT22;9576;47.792;9.628;2023-03-29T19:27:31;12.70;99.90
18888;DHT22;9576;47.792;9.628;2023-03-29T19:30:34;12.60;99.90
18888;DHT22;9576;47.792;9.628;2023-03-29T19:33:36;12.60;99.90
18888;DHT22;9576;47.792;9.628;2023-03-29T19:36:38;12.60;99.90
18888;DHT22;9576;47.792;9.628;2023-03-29T19:39:40;12.60;99.90
18888;DHT22;9576;47.792;9.628;2023-03-29T19:42:43;12.60;99.90
18888;DHT22;9576;47.792;9.628;2023-03-29T19:45:48;12.50;99.90
18888;DHT22;9576;47.792;9.628;2023-03-29T19:48:50;12.40;99.90
18888;DHT22;9576;47.792;9.628;2023-03-29T19:51:55;12.40;99.90
18888;DHT22;9576;47.792;9.628;2023-03-29T19:54:57;12.30;99.90